createdAt,value
2022-10-01T00:03:26.240Z,61.6
2022-10-01T00:09:22.656Z,61.3
2022-10-01T00:15:30.197Z,61.4
2022-10-01T00:21:23.036Z,61.6
2022-10-01T00:27:22.341Z,61.8
2022-10-01T00:33:25.662Z,61.8
2022-10-01T00:39:22.180Z,62
2022-10-01T00:45:35.663Z,62.3
2022-10-01T00:51:23.641Z,62.3
2022-10-01T00:57:22.207Z,62.9
2022-10-01T01:03:25.241Z,65.1
2022-10-01T01:09:23.899Z,66.7
2022-10-01T01:15:28.579Z,67.4
2022-10-01T01:21:21.857Z,69.5
2022-10-01T01:27:22.065Z,69.5
2022-10-01T01:33:23.527Z,69.5
2022-10-01T01:39:22.965Z,71.4
2022-10-01T01:45:29.074Z,71.9
2022-10-01T01:51:23.402Z,72.2
2022-10-01T01:57:23.155Z,73.4
2022-10-01T02:03:22.323Z,73.9
2022-10-01T02:09:22.144Z,74.1
2022-10-01T02:15:24.047Z,74.6
2022-10-01T02:21:22.091Z,75.1
2022-10-01T02:27:23.780Z,75.5
2022-10-01T02:33:23.500Z,75.7
2022-10-01T02:39:22.169Z,75.8
2022-10-01T02:45:40.887Z,75.9
2022-10-01T02:51:22.318Z,76.2
2022-10-01T02:57:22.125Z,76.3
2022-10-01T03:03:23.787Z,76.3
2022-10-01T03:09:24.769Z,76.7
2022-10-01T03:15:40.899Z,76.6
2022-10-01T03:21:28.293Z,76.9
2022-10-01T03:27:26.285Z,76.8
2022-10-01T03:33:23.334Z,77
2022-10-01T03:39:22.646Z,77.2
2022-10-01T03:45:25.435Z,77.5
2022-10-01T03:51:24.106Z,77.4
2022-10-01T03:57:23.537Z,77.7
2022-10-01T04:03:23.349Z,78.2
2022-10-01T04:09:22.483Z,78.6
2022-10-01T04:15:36.551Z,78.9
2022-10-01T04:21:23.189Z,78.7
2022-10-01T04:27:23.437Z,78.7
2022-10-01T04:33:23.071Z,78.1
2022-10-01T04:39:22.556Z,78.6
2022-10-01T04:45:27.325Z,78.2
2022-10-01T04:51:32.232Z,78.7
2022-10-01T04:57:23.314Z,78.6
2022-10-01T05:03:22.754Z,78.6
2022-10-01T05:09:23.120Z,79.2
2022-10-01T05:15:38.297Z,78.8
2022-10-01T05:21:23.437Z,78.1
2022-10-01T05:27:23.074Z,78.1
2022-10-01T05:33:22.452Z,77.9
2022-10-01T05:39:23.006Z,78
2022-10-01T05:45:29.513Z,77.6
2022-10-01T05:51:23.538Z,77.6
2022-10-01T05:57:23.296Z,77.5
2022-10-01T06:03:24.041Z,77.2
2022-10-01T06:09:25.530Z,77.3
2022-10-01T06:15:25.713Z,76.8
2022-10-01T06:21:23.411Z,76.7
2022-10-01T06:27:25.009Z,76.8
2022-10-01T06:33:24.119Z,76.8
2022-10-01T06:39:22.773Z,76.7
2022-10-01T06:45:32.102Z,76.5
2022-10-01T06:51:24.507Z,77
2022-10-01T06:57:22.873Z,77.1
2022-10-01T07:03:24.601Z,77
2022-10-01T07:09:22.317Z,77.6
2022-10-01T07:15:27.098Z,78.3
2022-10-01T07:21:24.053Z,79.1
2022-10-01T07:27:23.174Z,79.3
2022-10-01T07:33:23.033Z,80
2022-10-01T07:39:22.915Z,80.1
2022-10-01T07:45:29.017Z,79.9
2022-10-01T07:51:24.649Z,80.1
2022-10-01T07:57:26.034Z,80.2
2022-10-01T08:03:29.444Z,80.2
2022-10-01T08:09:22.319Z,80.1
2022-10-01T08:15:32.709Z,79.9
2022-10-01T08:21:22.508Z,79.9
2022-10-01T08:27:22.382Z,80.1
2022-10-01T08:33:22.921Z,79.9
2022-10-01T08:39:22.972Z,78.8
2022-10-01T08:45:22.684Z,78.4
2022-10-01T08:51:22.126Z,77.8
2022-10-01T08:57:22.239Z,76.5
2022-10-01T09:03:22.535Z,76.9
2022-10-01T09:09:22.030Z,76.9
2022-10-01T09:15:21.997Z,76.4
2022-10-01T09:21:22.148Z,76.1
2022-10-01T09:27:22.223Z,76.4
2022-10-01T09:33:22.321Z,76.5
2022-10-01T09:39:22.265Z,77.9
2022-10-01T09:45:23.034Z,78.1
2022-10-01T09:51:22.550Z,80
2022-10-01T09:57:22.487Z,79.5
2022-10-01T10:03:23.091Z,77.5
2022-10-01T10:09:22.540Z,78.3
2022-10-01T10:15:23.379Z,77.8
2022-10-01T10:21:22.264Z,77.1
2022-10-01T10:27:22.966Z,76.1
2022-10-01T10:33:22.312Z,76.2
2022-10-01T10:39:22.270Z,75
2022-10-01T10:45:24.630Z,71.9
2022-10-01T10:51:22.446Z,71.8
2022-10-01T10:57:22.339Z,69.8
2022-10-01T11:03:22.600Z,69.6
2022-10-01T11:09:22.390Z,67.8
2022-10-01T11:15:22.045Z,66.6
2022-10-01T11:21:22.065Z,66.6
2022-10-01T11:27:21.972Z,66.6
2022-10-01T11:33:21.975Z,65.7
2022-10-01T11:39:22.211Z,64
2022-10-01T11:45:22.698Z,64
2022-10-01T11:51:22.284Z,58.9
2022-10-01T11:57:22.430Z,59.6
2022-10-01T12:03:22.549Z,60.4
2022-10-01T12:09:22.544Z,61
2022-10-01T12:15:22.527Z,67.7
2022-10-01T12:21:22.152Z,73.1
2022-10-01T12:27:22.198Z,73.3
2022-10-01T12:33:22.037Z,74
2022-10-01T12:39:22.021Z,74
2022-10-01T12:45:22.122Z,74
2022-10-01T12:51:22.040Z,74.3
2022-10-01T12:57:22.059Z,74.1
2022-10-01T13:03:21.999Z,74
2022-10-01T13:09:22.113Z,75.1
2022-10-01T13:15:22.485Z,75.1
2022-10-01T13:21:22.285Z,76.3
2022-10-01T13:27:22.185Z,76.3
2022-10-01T13:33:22.221Z,71.6
2022-10-01T13:39:22.367Z,68
2022-10-01T13:45:22.389Z,70.2
2022-10-01T13:51:22.191Z,72
2022-10-01T13:57:22.484Z,73.3
2022-10-01T14:03:22.290Z,72.7
2022-10-01T14:09:22.127Z,74.9
2022-10-01T14:15:22.544Z,74.9
2022-10-01T14:21:22.400Z,74.1
2022-10-01T14:27:22.030Z,70.7
2022-10-01T14:33:22.198Z,69.5
2022-10-01T14:39:22.154Z,66.1
2022-10-01T14:45:22.232Z,65.2
2022-10-01T14:51:22.325Z,63.7
2022-10-01T14:57:22.863Z,65
2022-10-01T15:03:23.044Z,67.7
2022-10-01T15:09:23.111Z,70.6
2022-10-01T15:15:22.695Z,71.4
2022-10-01T15:21:22.686Z,70.5
2022-10-01T15:27:22.541Z,65.7
2022-10-01T15:33:23.379Z,66.7
2022-10-01T15:39:22.547Z,66
2022-10-01T15:45:22.346Z,59.1
2022-10-01T15:51:22.160Z,57.6
2022-10-01T15:57:22.388Z,52.8
2022-10-01T16:03:22.370Z,51
2022-10-01T16:09:22.371Z,52.9
2022-10-01T16:15:22.301Z,54.8
2022-10-01T16:21:22.245Z,54.8
2022-10-01T16:27:22.239Z,58.6
2022-10-01T16:33:23.789Z,62.3
2022-10-01T16:39:23.281Z,62
2022-10-01T16:45:22.805Z,63.9
2022-10-01T16:51:22.761Z,65.2
2022-10-01T16:57:22.545Z,68.2
2022-10-01T17:03:22.581Z,68.5
2022-10-01T17:09:22.339Z,69.4
2022-10-01T17:15:22.621Z,69.1
2022-10-01T17:21:23.054Z,69.8
2022-10-01T17:27:23.438Z,70.3
2022-10-01T17:33:22.611Z,70.6
2022-10-01T17:39:23.031Z,71.5
2022-10-01T17:45:23.580Z,72.3
2022-10-01T17:51:22.733Z,73.1
2022-10-01T17:57:23.064Z,74.1
2022-10-01T18:03:23.881Z,74.4
2022-10-01T18:09:24.130Z,74.2
2022-10-01T18:15:27.574Z,73.1
2022-10-01T18:21:26.116Z,73.6
2022-10-01T18:27:24.301Z,72.6
2022-10-01T18:33:23.770Z,72.5
2022-10-01T18:39:22.237Z,74.3
2022-10-01T18:45:26.868Z,74.3
2022-10-01T18:51:22.156Z,74.3
2022-10-01T18:57:22.136Z,74.3
2022-10-01T19:03:22.154Z,75.6
2022-10-01T19:09:22.093Z,75.6
2022-10-01T19:15:22.331Z,76.2
2022-10-01T19:21:22.182Z,76.2
2022-10-01T19:27:22.098Z,76.3
2022-10-01T19:33:22.123Z,76.3
2022-10-01T19:39:23.343Z,76.4
2022-10-01T19:45:25.099Z,76.5
2022-10-01T19:51:23.112Z,76.5
2022-10-01T19:57:22.819Z,76.5
2022-10-01T20:03:24.622Z,76.6
2022-10-01T20:09:22.297Z,76.5
2022-10-01T20:15:22.930Z,76.5
2022-10-01T20:21:22.457Z,76.5
2022-10-01T20:27:22.145Z,77
2022-10-01T20:33:22.194Z,76.9
2022-10-01T20:39:22.201Z,77.2
2022-10-01T20:45:23.954Z,77.4
2022-10-01T20:51:22.417Z,77.5
2022-10-01T20:57:22.664Z,77.6
2022-10-01T21:03:23.292Z,77.2
2022-10-01T21:09:23.224Z,77.2
2022-10-01T21:15:22.592Z,76.9
2022-10-01T21:21:22.136Z,77.3
2022-10-01T21:27:22.103Z,77.3
2022-10-01T21:33:22.291Z,77.3
2022-10-01T21:39:22.233Z,78
2022-10-01T21:45:22.089Z,78.1
2022-10-01T21:51:22.247Z,78.1
2022-10-01T21:57:22.212Z,78.4
2022-10-01T22:03:22.342Z,78.4
2022-10-01T22:09:22.311Z,78.2
2022-10-01T22:15:22.345Z,78
2022-10-01T22:21:23.389Z,78
2022-10-01T22:27:24.108Z,79.2
2022-10-01T22:33:23.212Z,79.1
2022-10-01T22:39:22.321Z,78.8
2022-10-01T22:45:23.456Z,78.3
2022-10-01T22:51:22.175Z,78.2
2022-10-01T22:57:22.148Z,78.2
2022-10-01T23:03:22.284Z,78.2
2022-10-01T23:09:22.229Z,78.3
2022-10-01T23:15:22.205Z,78.5
2022-10-01T23:21:22.253Z,78.3
2022-10-01T23:27:22.152Z,78.4
2022-10-01T23:33:22.263Z,78.4
2022-10-01T23:39:22.402Z,78.7
2022-10-01T23:45:22.306Z,78.6
2022-10-01T23:51:22.666Z,78.5
2022-10-01T23:57:22.289Z,78.5
